sensor_id;sensor_type;location;lat;lon;timestamp;P1;durP1;ratioP1;P2;durP2;ratioP2
37529;SDS011;23374;52.758;6.872;2023-02-18T00:01:56;11.27;;;1.87;;
37529;SDS011;23374;52.758;6.872;2023-02-18T00:04:16;6.17;;;1.40;;
37529;SDS011;23374;52.758;6.872;2023-02-18T00:06:37;7.03;;;1.57;;
37529;SDS011;23374;52.758;6.872;2023-02-18T00:10:13;6.83;;;2.00;;
37529;SDS011;23374;52.758;6.872;2023-02-18T00:12:35;5.27;;;1.53;;
37529;SDS011;23374;52.758;6.872;2023-02-18T00:14:56;7.27;;;2.00;;
37529;SDS011;23374;52.758;6.872;2023-02-18T00:17:16;8.20;;;2.27;;
37529;SDS011;23374;52.758;6.872;2023-02-18T00:19:37;10.43;;;2.53;;
37529;SDS011;23374;52.758;6.872;2023-02-18T00:21:57;6.60;;;1.47;;
37529;SDS011;23374;52.758;6.872;2023-02-18T00:24:18;7.97;;;1.70;;
37529;SDS011;23374;52.758;6.872;2023-02-18T00:26:38;5.07;;;1.73;;
37529;SDS011;23374;52.758;6.872;2023-02-18T00:28:59;9.70;;;2.10;;
37529;SDS011;23374;52.758;6.872;2023-02-18T00:31:28;7.70;;;1.97;;
37529;SDS011;23374;52.758;6.872;2023-02-18T00:33:51;8.63;;;1.87;;
37529;SDS011;23374;52.758;6.872;2023-02-18T00:36:17;5.73;;;1.67;;
37529;SDS011;23374;52.758;6.872;2023-02-18T00:38:43;5.30;;;1.67;;
37529;SDS011;23374;52.758;6.872;2023-02-18T00:41:05;10.23;;;1.80;;
37529;SDS011;23374;52.758;6.872;2023-02-18T00:43:26;7.67;;;2.20;;
37529;SDS011;23374;52.758;6.872;2023-02-18T00:45:47;10.60;;;1.97;;
37529;SDS011;23374;52.758;6.872;2023-02-18T00:48:07;6.03;;;1.97;;
37529;SDS011;23374;52.758;6.872;2023-02-18T00:50:27;7.40;;;1.77;;
37529;SDS011;23374;52.758;6.872;2023-02-18T00:52:47;4.33;;;1.43;;
37529;SDS011;23374;52.758;6.872;2023-02-18T00:55:08;8.83;;;2.03;;
37529;SDS011;23374;52.758;6.872;2023-02-18T00:57:28;8.13;;;1.80;;
37529;SDS011;23374;52.758;6.872;2023-02-18T00:59:49;9.60;;;2.20;;
37529;SDS011;23374;52.758;6.872;2023-02-18T01:02:09;9.10;;;1.73;;
37529;SDS011;23374;52.758;6.872;2023-02-18T01:04:30;2.90;;;1.43;;
37529;SDS011;23374;52.758;6.872;2023-02-18T01:06:50;8.07;;;2.00;;
37529;SDS011;23374;52.758;6.872;2023-02-18T01:10:17;4.97;;;2.03;;
37529;SDS011;23374;52.758;6.872;2023-02-18T01:12:38;7.30;;;2.10;;
37529;SDS011;23374;52.758;6.872;2023-02-18T01:14:59;14.97;;;2.30;;
37529;SDS011;23374;52.758;6.872;2023-02-18T01:17:19;8.43;;;2.13;;
37529;SDS011;23374;52.758;6.872;2023-02-18T01:19:39;8.37;;;2.23;;
37529;SDS011;23374;52.758;6.872;2023-02-18T01:21:59;9.53;;;1.97;;
37529;SDS011;23374;52.758;6.872;2023-02-18T01:24:20;7.70;;;2.27;;
37529;SDS011;23374;52.758;6.872;2023-02-18T01:26:40;13.97;;;2.80;;
37529;SDS011;23374;52.758;6.872;2023-02-18T01:29:01;12.90;;;2.57;;
37529;SDS011;23374;52.758;6.872;2023-02-18T01:31:21;8.37;;;2.60;;
37529;SDS011;23374;52.758;6.872;2023-02-18T01:33:42;10.80;;;2.60;;
37529;SDS011;23374;52.758;6.872;2023-02-18T01:36:03;11.90;;;2.77;;
37529;SDS011;23374;52.758;6.872;2023-02-18T01:38:24;6.97;;;2.67;;
37529;SDS011;23374;52.758;6.872;2023-02-18T01:40:48;16.30;;;3.53;;
37529;SDS011;23374;52.758;6.872;2023-02-18T01:43:11;14.50;;;3.37;;
37529;SDS011;23374;52.758;6.872;2023-02-18T01:45:48;15.40;;;3.83;;
37529;SDS011;23374;52.758;6.872;2023-02-18T01:49:13;6.73;;;3.50;;
37529;SDS011;23374;52.758;6.872;2023-02-18T01:52:35;14.67;;;4.37;;
37529;SDS011;23374;52.758;6.872;2023-02-18T01:54:56;16.17;;;4.87;;
37529;SDS011;23374;52.758;6.872;2023-02-18T01:57:29;16.90;;;5.40;;
37529;SDS011;23374;52.758;6.872;2023-02-18T02:00:04;16.90;;;5.87;;
37529;SDS011;23374;52.758;6.872;2023-02-18T02:02:30;12.93;;;6.00;;
37529;SDS011;23374;52.758;6.872;2023-02-18T02:04:54;11.03;;;6.37;;
37529;SDS011;23374;52.758;6.872;2023-02-18T02:07:15;12.53;;;6.17;;
37529;SDS011;23374;52.758;6.872;2023-02-18T02:10:23;19.10;;;7.07;;
37529;SDS011;23374;52.758;6.872;2023-02-18T02:13:24;16.57;;;6.57;;
37529;SDS011;23374;52.758;6.872;2023-02-18T02:16:26;22.97;;;6.77;;
37529;SDS011;23374;52.758;6.872;2023-02-18T02:24:54;19.97;;;6.37;;
37529;SDS011;23374;52.758;6.872;2023-02-18T02:32:31;19.83;;;6.10;;
37529;SDS011;23374;52.758;6.872;2023-02-18T02:36:54;17.20;;;6.53;;
37529;SDS011;23374;52.758;6.872;2023-02-18T02:41:08;13.63;;;6.17;;
37529;SDS011;23374;52.758;6.872;2023-02-18T02:44:01;17.90;;;6.00;;
37529;SDS011;23374;52.758;6.872;2023-02-18T02:48:00;15.87;;;6.23;;
37529;SDS011;23374;52.758;6.872;2023-02-18T02:51:23;17.77;;;6.60;;
37529;SDS011;23374;52.758;6.872;2023-02-18T02:54:50;13.30;;;6.53;;
37529;SDS011;23374;52.758;6.872;2023-02-18T02:57:56;19.30;;;6.83;;
37529;SDS011;23374;52.758;6.872;2023-02-18T03:00:19;19.57;;;7.30;;
37529;SDS011;23374;52.758;6.872;2023-02-18T03:03:13;19.27;;;6.60;;
37529;SDS011;23374;52.758;6.872;2023-02-18T03:11:12;23.93;;;7.73;;
37529;SDS011;23374;52.758;6.872;2023-02-18T03:13:56;23.03;;;7.27;;
37529;SDS011;23374;52.758;6.872;2023-02-18T03:16:52;15.27;;;6.73;;
37529;SDS011;23374;52.758;6.872;2023-02-18T03:19:34;25.60;;;7.73;;
37529;SDS011;23374;52.758;6.872;2023-02-18T03:22:07;19.50;;;7.83;;
37529;SDS011;23374;52.758;6.872;2023-02-18T03:24:37;19.20;;;8.33;;
37529;SDS011;23374;52.758;6.872;2023-02-18T03:27:06;26.83;;;8.80;;
37529;SDS011;23374;52.758;6.872;2023-02-18T03:29:34;22.10;;;8.57;;
37529;SDS011;23374;52.758;6.872;2023-02-18T03:31:59;20.10;;;8.00;;
37529;SDS011;23374;52.758;6.872;2023-02-18T03:34:27;24.00;;;9.47;;
37529;SDS011;23374;52.758;6.872;2023-02-18T03:36:50;23.10;;;10.47;;
37529;SDS011;23374;52.758;6.872;2023-02-18T03:39:14;31.87;;;11.20;;
37529;SDS011;23374;52.758;6.872;2023-02-18T03:41:35;32.07;;;11.20;;
37529;SDS011;23374;52.758;6.872;2023-02-18T03:44:03;31.60;;;11.33;;
37529;SDS011;23374;52.758;6.872;2023-02-18T03:46:26;33.30;;;12.07;;
37529;SDS011;23374;52.758;6.872;2023-02-18T03:48:47;25.67;;;11.13;;
37529;SDS011;23374;52.758;6.872;2023-02-18T03:51:08;32.83;;;13.50;;
37529;SDS011;23374;52.758;6.872;2023-02-18T03:53:28;26.93;;;13.40;;
37529;SDS011;23374;52.758;6.872;2023-02-18T03:55:49;33.53;;;13.33;;
37529;SDS011;23374;52.758;6.872;2023-02-18T03:58:09;32.47;;;13.30;;
37529;SDS011;23374;52.758;6.872;2023-02-18T04:00:30;30.50;;;12.97;;
37529;SDS011;23374;52.758;6.872;2023-02-18T04:02:50;42.43;;;14.80;;
37529;SDS011;23374;52.758;6.872;2023-02-18T04:05:10;32.90;;;14.10;;
37529;SDS011;23374;52.758;6.872;2023-02-18T04:07:31;35.87;;;13.90;;
37529;SDS011;23374;52.758;6.872;2023-02-18T04:10:34;46.13;;;15.93;;
37529;SDS011;23374;52.758;6.872;2023-02-18T04:12:55;33.67;;;13.97;;
37529;SDS011;23374;52.758;6.872;2023-02-18T04:15:15;38.40;;;15.90;;
37529;SDS011;23374;52.758;6.872;2023-02-18T04:17:36;40.90;;;14.77;;
37529;SDS011;23374;52.758;6.872;2023-02-18T04:19:56;34.63;;;15.07;;
37529;SDS011;23374;52.758;6.872;2023-02-18T04:22:16;34.67;;;14.77;;
37529;SDS011;23374;52.758;6.872;2023-02-18T04:24:36;36.57;;;14.20;;
37529;SDS011;23374;52.758;6.872;2023-02-18T04:26:57;35.03;;;14.27;;
37529;SDS011;23374;52.758;6.872;2023-02-18T04:29:17;41.27;;;15.40;;
37529;SDS011;23374;52.758;6.872;2023-02-18T04:31:38;42.73;;;15.60;;
37529;SDS011;23374;52.758;6.872;2023-02-18T04:33:58;40.70;;;16.23;;
37529;SDS011;23374;52.758;6.872;2023-02-18T04:36:18;42.17;;;15.00;;
37529;SDS011;23374;52.758;6.872;2023-02-18T04:38:39;45.33;;;15.60;;
37529;SDS011;23374;52.758;6.872;2023-02-18T04:41:00;33.67;;;13.90;;
37529;SDS011;23374;52.758;6.872;2023-02-18T04:43:21;38.93;;;14.37;;
37529;SDS011;23374;52.758;6.872;2023-02-18T04:45:41;32.87;;;12.67;;
37529;SDS011;23374;52.758;6.872;2023-02-18T04:48:02;30.43;;;13.33;;
37529;SDS011;23374;52.758;6.872;2023-02-18T04:50:22;32.67;;;13.17;;
37529;SDS011;23374;52.758;6.872;2023-02-18T04:52:43;35.63;;;13.13;;
37529;SDS011;23374;52.758;6.872;2023-02-18T04:55:04;35.07;;;13.57;;
37529;SDS011;23374;52.758;6.872;2023-02-18T04:57:25;32.97;;;12.27;;
37529;SDS011;23374;52.758;6.872;2023-02-18T04:59:45;34.93;;;13.03;;
37529;SDS011;23374;52.758;6.872;2023-02-18T05:02:05;32.23;;;12.43;;
37529;SDS011;23374;52.758;6.872;2023-02-18T05:04:26;32.80;;;11.47;;
37529;SDS011;23374;52.758;6.872;2023-02-18T05:06:46;32.30;;;11.23;;
37529;SDS011;23374;52.758;6.872;2023-02-18T05:10:39;33.60;;;10.83;;
37529;SDS011;23374;52.758;6.872;2023-02-18T05:13:00;35.37;;;10.80;;
37529;SDS011;23374;52.758;6.872;2023-02-18T05:15:20;27.30;;;10.57;;
37529;SDS011;23374;52.758;6.872;2023-02-18T05:17:40;29.00;;;11.23;;
37529;SDS011;23374;52.758;6.872;2023-02-18T05:20:00;31.00;;;11.57;;
37529;SDS011;23374;52.758;6.872;2023-02-18T05:22:21;35.90;;;11.33;;
37529;SDS011;23374;52.758;6.872;2023-02-18T05:24:41;35.83;;;10.87;;
37529;SDS011;23374;52.758;6.872;2023-02-18T05:27:02;32.73;;;12.37;;
37529;SDS011;23374;52.758;6.872;2023-02-18T05:29:22;32.93;;;12.53;;
37529;SDS011;23374;52.758;6.872;2023-02-18T05:31:43;37.17;;;12.57;;
37529;SDS011;23374;52.758;6.872;2023-02-18T05:34:03;34.40;;;11.90;;
37529;SDS011;23374;52.758;6.872;2023-02-18T05:36:23;36.03;;;12.07;;
37529;SDS011;23374;52.758;6.872;2023-02-18T05:38:44;34.83;;;10.87;;
37529;SDS011;23374;52.758;6.872;2023-02-18T05:41:04;30.20;;;11.60;;
37529;SDS011;23374;52.758;6.872;2023-02-18T05:43:24;32.50;;;11.40;;
37529;SDS011;23374;52.758;6.872;2023-02-18T05:45:45;29.93;;;11.30;;
37529;SDS011;23374;52.758;6.872;2023-02-18T05:48:05;25.77;;;10.83;;
37529;SDS011;23374;52.758;6.872;2023-02-18T05:50:26;30.57;;;10.60;;
37529;SDS011;23374;52.758;6.872;2023-02-18T05:52:47;23.47;;;8.90;;
37529;SDS011;23374;52.758;6.872;2023-02-18T05:55:08;29.03;;;9.90;;
37529;SDS011;23374;52.758;6.872;2023-02-18T05:57:28;22.67;;;8.67;;
37529;SDS011;23374;52.758;6.872;2023-02-18T05:59:49;23.87;;;8.67;;
37529;SDS011;23374;52.758;6.872;2023-02-18T06:02:10;24.93;;;8.67;;
37529;SDS011;23374;52.758;6.872;2023-02-18T06:04:30;25.83;;;9.27;;
37529;SDS011;23374;52.758;6.872;2023-02-18T06:06:50;22.60;;;9.30;;
37529;SDS011;23374;52.758;6.872;2023-02-18T06:10:45;21.50;;;9.07;;
37529;SDS011;23374;52.758;6.872;2023-02-18T06:13:06;22.57;;;8.13;;
37529;SDS011;23374;52.758;6.872;2023-02-18T06:15:26;23.00;;;7.60;;
37529;SDS011;23374;52.758;6.872;2023-02-18T06:17:47;21.10;;;7.47;;
37529;SDS011;23374;52.758;6.872;2023-02-18T06:20:08;18.87;;;7.17;;
37529;SDS011;23374;52.758;6.872;2023-02-18T06:22:29;24.37;;;8.10;;
37529;SDS011;23374;52.758;6.872;2023-02-18T06:24:50;22.70;;;7.77;;
37529;SDS011;23374;52.758;6.872;2023-02-18T06:27:10;19.30;;;6.93;;
37529;SDS011;23374;52.758;6.872;2023-02-18T06:29:31;21.63;;;7.03;;
37529;SDS011;23374;52.758;6.872;2023-02-18T06:31:51;17.10;;;6.47;;
37529;SDS011;23374;52.758;6.872;2023-02-18T06:34:12;19.30;;;6.80;;
37529;SDS011;23374;52.758;6.872;2023-02-18T06:36:33;17.13;;;5.90;;
37529;SDS011;23374;52.758;6.872;2023-02-18T06:38:53;13.23;;;5.47;;
37529;SDS011;23374;52.758;6.872;2023-02-18T06:41:16;15.90;;;6.03;;
37529;SDS011;23374;52.758;6.872;2023-02-18T06:43:36;12.07;;;5.77;;
37529;SDS011;23374;52.758;6.872;2023-02-18T06:45:57;16.80;;;5.60;;
37529;SDS011;23374;52.758;6.872;2023-02-18T06:48:18;10.43;;;4.80;;
37529;SDS011;23374;52.758;6.872;2023-02-18T06:50:39;14.10;;;5.47;;
37529;SDS011;23374;52.758;6.872;2023-02-18T06:53:00;10.07;;;4.33;;
37529;SDS011;23374;52.758;6.872;2023-02-18T06:55:20;11.50;;;4.27;;
37529;SDS011;23374;52.758;6.872;2023-02-18T06:57:41;8.67;;;3.83;;
37529;SDS011;23374;52.758;6.872;2023-02-18T07:00:02;9.87;;;4.33;;
37529;SDS011;23374;52.758;6.872;2023-02-18T07:02:23;9.00;;;4.10;;
37529;SDS011;23374;52.758;6.872;2023-02-18T07:04:44;6.37;;;3.07;;
37529;SDS011;23374;52.758;6.872;2023-02-18T07:07:05;8.83;;;4.00;;
37529;SDS011;23374;52.758;6.872;2023-02-18T07:09:25;6.73;;;3.17;;
37529;SDS011;23374;52.758;6.872;2023-02-18T07:11:45;8.17;;;3.00;;
37529;SDS011;23374;52.758;6.872;2023-02-18T07:14:07;6.53;;;3.33;;
37529;SDS011;23374;52.758;6.872;2023-02-18T07:16:27;7.77;;;3.67;;
37529;SDS011;23374;52.758;6.872;2023-02-18T07:18:47;7.73;;;3.90;;
37529;SDS011;23374;52.758;6.872;2023-02-18T07:21:08;5.80;;;2.93;;
37529;SDS011;23374;52.758;6.872;2023-02-18T07:23:28;6.27;;;3.63;;
37529;SDS011;23374;52.758;6.872;2023-02-18T07:25:48;6.07;;;3.23;;
37529;SDS011;23374;52.758;6.872;2023-02-18T07:28:09;10.57;;;4.70;;
37529;SDS011;23374;52.758;6.872;2023-02-18T07:30:29;9.53;;;4.33;;
37529;SDS011;23374;52.758;6.872;2023-02-18T07:32:50;7.60;;;4.40;;
37529;SDS011;23374;52.758;6.872;2023-02-18T07:35:13;8.20;;;4.33;;
37529;SDS011;23374;52.758;6.872;2023-02-18T07:37:34;12.47;;;5.40;;
37529;SDS011;23374;52.758;6.872;2023-02-18T07:39:54;7.00;;;4.23;;
37529;SDS011;23374;52.758;6.872;2023-02-18T07:42:14;12.00;;;5.17;;
37529;SDS011;23374;52.758;6.872;2023-02-18T07:44:35;9.93;;;4.93;;
37529;SDS011;23374;52.758;6.872;2023-02-18T07:46:56;11.53;;;5.33;;
37529;SDS011;23374;52.758;6.872;2023-02-18T07:49:17;9.97;;;5.80;;
37529;SDS011;23374;52.758;6.872;2023-02-18T07:51:37;10.17;;;4.87;;
37529;SDS011;23374;52.758;6.872;2023-02-18T07:53:59;5.53;;;4.07;;
37529;SDS011;23374;52.758;6.872;2023-02-18T07:56:19;12.03;;;5.20;;
37529;SDS011;23374;52.758;6.872;2023-02-18T07:58:39;8.47;;;5.23;;
37529;SDS011;23374;52.758;6.872;2023-02-18T08:01:07;11.40;;;5.53;;
37529;SDS011;23374;52.758;6.872;2023-02-18T08:03:30;13.07;;;4.90;;
37529;SDS011;23374;52.758;6.872;2023-02-18T08:05:52;12.20;;;4.90;;
37529;SDS011;23374;52.758;6.872;2023-02-18T08:08:14;6.87;;;4.03;;
37529;SDS011;23374;52.758;6.872;2023-02-18T08:10:40;9.40;;;4.43;;
37529;SDS011;23374;52.758;6.872;2023-02-18T08:13:00;7.63;;;4.40;;
37529;SDS011;23374;52.758;6.872;2023-02-18T08:15:20;5.13;;;3.50;;
37529;SDS011;23374;52.758;6.872;2023-02-18T08:17:41;11.43;;;4.07;;
37529;SDS011;23374;52.758;6.872;2023-02-18T08:20:01;5.87;;;3.10;;
37529;SDS011;23374;52.758;6.872;2023-02-18T08:22:23;5.37;;;2.93;;
37529;SDS011;23374;52.758;6.872;2023-02-18T08:24:43;10.83;;;3.90;;
37529;SDS011;23374;52.758;6.872;2023-02-18T08:27:03;7.43;;;3.47;;
37529;SDS011;23374;52.758;6.872;2023-02-18T08:29:24;8.17;;;3.63;;
37529;SDS011;23374;52.758;6.872;2023-02-18T08:31:44;13.93;;;4.70;;
37529;SDS011;23374;52.758;6.872;2023-02-18T08:34:04;8.87;;;3.30;;
37529;SDS011;23374;52.758;6.872;2023-02-18T08:36:26;8.33;;;3.70;;
37529;SDS011;23374;52.758;6.872;2023-02-18T08:38:47;7.90;;;3.57;;
37529;SDS011;23374;52.758;6.872;2023-02-18T08:41:08;12.47;;;4.00;;
37529;SDS011;23374;52.758;6.872;2023-02-18T08:43:28;6.30;;;3.13;;
37529;SDS011;23374;52.758;6.872;2023-02-18T08:45:49;5.80;;;2.90;;
37529;SDS011;23374;52.758;6.872;2023-02-18T08:48:10;6.73;;;2.50;;
37529;SDS011;23374;52.758;6.872;2023-02-18T08:50:32;6.53;;;2.70;;
37529;SDS011;23374;52.758;6.872;2023-02-18T08:52:53;4.70;;;2.43;;
37529;SDS011;23374;52.758;6.872;2023-02-18T08:55:13;7.67;;;2.60;;
37529;SDS011;23374;52.758;6.872;2023-02-18T08:57:34;7.77;;;2.50;;
37529;SDS011;23374;52.758;6.872;2023-02-18T08:59:54;5.50;;;3.20;;
37529;SDS011;23374;52.758;6.872;2023-02-18T09:02:15;5.33;;;2.17;;
37529;SDS011;23374;52.758;6.872;2023-02-18T09:04:35;5.23;;;2.30;;
37529;SDS011;23374;52.758;6.872;2023-02-18T09:06:55;9.00;;;2.97;;
37529;SDS011;23374;52.758;6.872;2023-02-18T09:09:16;4.33;;;2.80;;
37529;SDS011;23374;52.758;6.872;2023-02-18T09:11:37;10.73;;;2.90;;
37529;SDS011;23374;52.758;6.872;2023-02-18T09:13:57;7.43;;;2.50;;
37529;SDS011;23374;52.758;6.872;2023-02-18T09:16:18;3.03;;;2.00;;
37529;SDS011;23374;52.758;6.872;2023-02-18T09:18:38;4.30;;;2.30;;
37529;SDS011;23374;52.758;6.872;2023-02-18T09:20:59;5.77;;;2.43;;
37529;SDS011;23374;52.758;6.872;2023-02-18T09:23:20;4.90;;;2.00;;
37529;SDS011;23374;52.758;6.872;2023-02-18T09:25:40;10.20;;;2.70;;
37529;SDS011;23374;52.758;6.872;2023-02-18T09:28:01;4.03;;;1.60;;
37529;SDS011;23374;52.758;6.872;2023-02-18T09:30:21;5.60;;;2.10;;
37529;SDS011;23374;52.758;6.872;2023-02-18T09:32:41;4.97;;;2.77;;
37529;SDS011;23374;52.758;6.872;2023-02-18T09:35:04;5.20;;;2.07;;
37529;SDS011;23374;52.758;6.872;2023-02-18T09:37:28;4.57;;;2.00;;
37529;SDS011;23374;52.758;6.872;2023-02-18T09:39:49;4.93;;;1.50;;
37529;SDS011;23374;52.758;6.872;2023-02-18T09:42:12;6.67;;;1.80;;
37529;SDS011;23374;52.758;6.872;2023-02-18T09:44:39;3.83;;;1.30;;
37529;SDS011;23374;52.758;6.872;2023-02-18T09:47:39;2.33;;;1.47;;
37529;SDS011;23374;52.758;6.872;2023-02-18T09:50:10;2.17;;;1.10;;
37529;SDS011;23374;52.758;6.872;2023-02-18T09:52:42;1.67;;;1.10;;
37529;SDS011;23374;52.758;6.872;2023-02-18T09:55:30;5.03;;;1.63;;
37529;SDS011;23374;52.758;6.872;2023-02-18T09:57:56;4.67;;;1.40;;
37529;SDS011;23374;52.758;6.872;2023-02-18T10:09:38;6.00;;;1.73;;
37529;SDS011;23374;52.758;6.872;2023-02-18T10:12:06;5.10;;;1.33;;
37529;SDS011;23374;52.758;6.872;2023-02-18T10:14:33;9.37;;;2.07;;
37529;SDS011;23374;52.758;6.872;2023-02-18T10:16:54;11.07;;;2.53;;
37529;SDS011;23374;52.758;6.872;2023-02-18T10:19:59;4.17;;;1.40;;
37529;SDS011;23374;52.758;6.872;2023-02-18T10:22:22;6.00;;;1.87;;
37529;SDS011;23374;52.758;6.872;2023-02-18T10:24:52;7.37;;;1.73;;
37529;SDS011;23374;52.758;6.872;2023-02-18T10:27:30;8.13;;;1.93;;
37529;SDS011;23374;52.758;6.872;2023-02-18T10:30:24;5.23;;;2.00;;
37529;SDS011;23374;52.758;6.872;2023-02-18T10:34:37;5.93;;;1.80;;
37529;SDS011;23374;52.758;6.872;2023-02-18T10:37:07;10.63;;;2.10;;
37529;SDS011;23374;52.758;6.872;2023-02-18T10:51:11;3.90;;;1.70;;
37529;SDS011;23374;52.758;6.872;2023-02-18T10:53:37;4.50;;;1.23;;
37529;SDS011;23374;52.758;6.872;2023-02-18T10:56:01;10.87;;;2.00;;
37529;SDS011;23374;52.758;6.872;2023-02-18T10:58:33;6.60;;;1.50;;
37529;SDS011;23374;52.758;6.872;2023-02-18T11:00:55;8.83;;;1.43;;
37529;SDS011;23374;52.758;6.872;2023-02-18T11:03:23;8.87;;;2.00;;
37529;SDS011;23374;52.758;6.872;2023-02-18T11:06:03;9.43;;;1.97;;
37529;SDS011;23374;52.758;6.872;2023-02-18T11:08:27;5.23;;;1.33;;
37529;SDS011;23374;52.758;6.872;2023-02-18T11:10:52;6.47;;;1.63;;
37529;SDS011;23374;52.758;6.872;2023-02-18T11:13:16;6.17;;;1.67;;
37529;SDS011;23374;52.758;6.872;2023-02-18T11:16:00;3.80;;;1.30;;
37529;SDS011;23374;52.758;6.872;2023-02-18T11:18:42;5.30;;;1.50;;
37529;SDS011;23374;52.758;6.872;2023-02-18T11:21:33;5.60;;;1.80;;
37529;SDS011;23374;52.758;6.872;2023-02-18T11:23:56;9.87;;;1.90;;
37529;SDS011;23374;52.758;6.872;2023-02-18T11:26:32;10.23;;;1.20;;
37529;SDS011;23374;52.758;6.872;2023-02-18T11:29:05;20.13;;;3.00;;
37529;SDS011;23374;52.758;6.872;2023-02-18T11:31:42;11.83;;;2.30;;
37529;SDS011;23374;52.758;6.872;2023-02-18T11:34:05;3.60;;;1.60;;
37529;SDS011;23374;52.758;6.872;2023-02-18T11:36:34;9.43;;;2.00;;
37529;SDS011;23374;52.758;6.872;2023-02-18T11:38:57;5.07;;;1.70;;
37529;SDS011;23374;52.758;6.872;2023-02-18T11:41:43;8.80;;;2.10;;
37529;SDS011;23374;52.758;6.872;2023-02-18T11:47:58;4.50;;;1.47;;
37529;SDS011;23374;52.758;6.872;2023-02-18T11:50:35;7.63;;;2.03;;
37529;SDS011;23374;52.758;6.872;2023-02-18T11:52:55;5.00;;;1.50;;
37529;SDS011;23374;52.758;6.872;2023-02-18T11:55:28;4.70;;;1.33;;
37529;SDS011;23374;52.758;6.872;2023-02-18T11:57:58;5.70;;;1.50;;
37529;SDS011;23374;52.758;6.872;2023-02-18T12:00:36;8.30;;;1.73;;
37529;SDS011;23374;52.758;6.872;2023-02-18T12:02:59;8.10;;;1.83;;
37529;SDS011;23374;52.758;6.872;2023-02-18T12:05:26;8.03;;;1.63;;
37529;SDS011;23374;52.758;6.872;2023-02-18T12:07:51;11.87;;;1.50;;
37529;SDS011;23374;52.758;6.872;2023-02-18T12:11:12;8.23;;;1.73;;
37529;SDS011;23374;52.758;6.872;2023-02-18T12:13:38;5.67;;;1.13;;
37529;SDS011;23374;52.758;6.872;2023-02-18T12:16:23;14.43;;;2.17;;
37529;SDS011;23374;52.758;6.872;2023-02-18T12:24:37;7.50;;;1.43;;
37529;SDS011;23374;52.758;6.872;2023-02-18T12:27:22;3.13;;;0.90;;
37529;SDS011;23374;52.758;6.872;2023-02-18T12:34:06;5.70;;;1.50;;
37529;SDS011;23374;52.758;6.872;2023-02-18T12:42:36;9.77;;;1.33;;
37529;SDS011;23374;52.758;6.872;2023-02-18T12:47:11;4.43;;;1.73;;
37529;SDS011;23374;52.758;6.872;2023-02-18T12:53:12;5.87;;;1.50;;
37529;SDS011;23374;52.758;6.872;2023-02-18T12:57:01;4.10;;;1.10;;
37529;SDS011;23374;52.758;6.872;2023-02-18T13:02:27;5.87;;;1.70;;
37529;SDS011;23374;52.758;6.872;2023-02-18T13:12:22;3.33;;;1.30;;
37529;SDS011;23374;52.758;6.872;2023-02-18T13:16:15;7.20;;;1.13;;
37529;SDS011;23374;52.758;6.872;2023-02-18T13:18:49;3.67;;;1.33;;
37529;SDS011;23374;52.758;6.872;2023-02-18T13:24:36;3.40;;;1.13;;
37529;SDS011;23374;52.758;6.872;2023-02-18T13:27:19;4.53;;;1.30;;
37529;SDS011;23374;52.758;6.872;2023-02-18T13:32:44;4.20;;;1.30;;
37529;SDS011;23374;52.758;6.872;2023-02-18T13:35:43;4.40;;;0.93;;
37529;SDS011;23374;52.758;6.872;2023-02-18T13:39:48;3.90;;;0.90;;
37529;SDS011;23374;52.758;6.872;2023-02-18T13:46:11;3.83;;;1.43;;
37529;SDS011;23374;52.758;6.872;2023-02-18T13:49:20;3.97;;;1.20;;
37529;SDS011;23374;52.758;6.872;2023-02-18T13:52:00;4.53;;;0.93;;
37529;SDS011;23374;52.758;6.872;2023-02-18T13:54:28;6.27;;;1.80;;
37529;SDS011;23374;52.758;6.872;2023-02-18T13:56:57;3.80;;;1.10;;
37529;SDS011;23374;52.758;6.872;2023-02-18T13:59:43;8.93;;;1.53;;
37529;SDS011;23374;52.758;6.872;2023-02-18T14:05:40;5.20;;;1.77;;
37529;SDS011;23374;52.758;6.872;2023-02-18T14:08:14;2.10;;;1.10;;
37529;SDS011;23374;52.758;6.872;2023-02-18T14:17:41;3.87;;;1.10;;
37529;SDS011;23374;52.758;6.872;2023-02-18T14:20:48;5.23;;;1.43;;
37529;SDS011;23374;52.758;6.872;2023-02-18T14:27:08;9.53;;;1.60;;
37529;SDS011;23374;52.758;6.872;2023-02-18T14:29:35;5.67;;;1.57;;
37529;SDS011;23374;52.758;6.872;2023-02-18T14:31:59;5.47;;;1.30;;
37529;SDS011;23374;52.758;6.872;2023-02-18T14:35:19;5.17;;;1.50;;
37529;SDS011;23374;52.758;6.872;2023-02-18T14:41:35;5.43;;;1.80;;
37529;SDS011;23374;52.758;6.872;2023-02-18T14:47:47;7.83;;;1.50;;
37529;SDS011;23374;52.758;6.872;2023-02-18T14:50:29;4.77;;;1.27;;
37529;SDS011;23374;52.758;6.872;2023-02-18T14:52:55;3.60;;;1.30;;
37529;SDS011;23374;52.758;6.872;2023-02-18T14:55:22;7.60;;;1.63;;
37529;SDS011;23374;52.758;6.872;2023-02-18T14:58:17;4.00;;;1.53;;
37529;SDS011;23374;52.758;6.872;2023-02-18T15:00:48;5.57;;;1.43;;
37529;SDS011;23374;52.758;6.872;2023-02-18T15:03:16;3.80;;;1.17;;
37529;SDS011;23374;52.758;6.872;2023-02-18T15:05:38;5.43;;;1.00;;
37529;SDS011;23374;52.758;6.872;2023-02-18T15:08:09;5.87;;;1.50;;
37529;SDS011;23374;52.758;6.872;2023-02-18T15:10:43;7.00;;;1.20;;
37529;SDS011;23374;52.758;6.872;2023-02-18T15:13:31;7.73;;;1.40;;
37529;SDS011;23374;52.758;6.872;2023-02-18T15:15:57;5.77;;;1.70;;
37529;SDS011;23374;52.758;6.872;2023-02-18T15:18:42;3.50;;;1.00;;
37529;SDS011;23374;52.758;6.872;2023-02-18T15:21:13;4.47;;;1.30;;
37529;SDS011;23374;52.758;6.872;2023-02-18T15:23:38;7.60;;;1.17;;
37529;SDS011;23374;52.758;6.872;2023-02-18T15:26:00;7.90;;;1.30;;
37529;SDS011;23374;52.758;6.872;2023-02-18T15:28:31;4.90;;;1.33;;
37529;SDS011;23374;52.758;6.872;2023-02-18T15:30:52;8.20;;;1.40;;
37529;SDS011;23374;52.758;6.872;2023-02-18T15:33:14;1.37;;;0.60;;
37529;SDS011;23374;52.758;6.872;2023-02-18T15:35:40;6.83;;;1.30;;
37529;SDS011;23374;52.758;6.872;2023-02-18T15:38:01;7.77;;;1.60;;
37529;SDS011;23374;52.758;6.872;2023-02-18T15:40:25;7.10;;;1.63;;
37529;SDS011;23374;52.758;6.872;2023-02-18T15:42:51;6.10;;;1.67;;
37529;SDS011;23374;52.758;6.872;2023-02-18T15:45:51;4.20;;;1.40;;
37529;SDS011;23374;52.758;6.872;2023-02-18T15:48:38;4.43;;;1.23;;
37529;SDS011;23374;52.758;6.872;2023-02-18T15:51:05;2.97;;;1.27;;
37529;SDS011;23374;52.758;6.872;2023-02-18T15:53:32;4.40;;;1.23;;
37529;SDS011;23374;52.758;6.872;2023-02-18T15:55:59;9.23;;;1.60;;
37529;SDS011;23374;52.758;6.872;2023-02-18T15:58:29;5.63;;;1.10;;
37529;SDS011;23374;52.758;6.872;2023-02-18T16:00:53;1.43;;;0.73;;
37529;SDS011;23374;52.758;6.872;2023-02-18T16:03:28;4.63;;;1.00;;
37529;SDS011;23374;52.758;6.872;2023-02-18T16:06:53;5.87;;;1.20;;
37529;SDS011;23374;52.758;6.872;2023-02-18T16:09:31;3.27;;;1.00;;
37529;SDS011;23374;52.758;6.872;2023-02-18T16:11:57;6.83;;;1.40;;
37529;SDS011;23374;52.758;6.872;2023-02-18T16:14:44;6.70;;;1.60;;
37529;SDS011;23374;52.758;6.872;2023-02-18T16:18:58;4.33;;;1.33;;
37529;SDS011;23374;52.758;6.872;2023-02-18T16:21:25;7.80;;;1.47;;
37529;SDS011;23374;52.758;6.872;2023-02-18T16:23:58;4.73;;;1.07;;
37529;SDS011;23374;52.758;6.872;2023-02-18T16:26:41;7.33;;;1.10;;
37529;SDS011;23374;52.758;6.872;2023-02-18T16:29:12;6.57;;;1.70;;
37529;SDS011;23374;52.758;6.872;2023-02-18T16:31:34;9.00;;;1.47;;
37529;SDS011;23374;52.758;6.872;2023-02-18T16:33:54;9.00;;;1.47;;
37529;SDS011;23374;52.758;6.872;2023-02-18T16:36:15;3.73;;;1.13;;
37529;SDS011;23374;52.758;6.872;2023-02-18T16:38:36;6.10;;;1.13;;
37529;SDS011;23374;52.758;6.872;2023-02-18T16:40:56;7.87;;;1.17;;
37529;SDS011;23374;52.758;6.872;2023-02-18T16:43:22;3.77;;;1.70;;
37529;SDS011;23374;52.758;6.872;2023-02-18T16:45:53;7.80;;;1.13;;